Time,TemperatureF,DewpointF,PressureIn,WindDirection,WindDirectionDegrees,WindSpeedMPH,WindSpeedGustMPH,Humidity,HourlyPrecipIn,Conditions,Clouds,dailyrainin,SoftwareType,DateUTC
2013-08-25 00:55:00,78.7,74.5,30.03,SW,217,0.0,4.0,87,0.00,,BKN200,0.00,VWS V14.00,2013-08-25 04:55:00,
2013-08-25 01:55:00,81.3,76.4,30.01,SE,132,0.0,5.0,85,0.00,,BKN230,0.00,VWS V14.00,2013-08-25 05:55:00,
2013-08-25 02:55:00,82.0,75.6,30.01,SE,146,0.0,6.0,81,0.00,,BKN200,0.00,VWS V14.00,2013-08-25 06:55:00,
2013-08-25 03:55:00,80.8,75.9,30.01,SSE,159,0.0,3.0,85,0.00,,BKN200,0.00,VWS V14.00,2013-08-25 07:55:00,
2013-08-25 04:55:00,78.9,74.7,30.02,WNW,283,2.0,4.0,87,0.00,,BKN200,0.00,VWS V14.00,2013-08-25 08:55:00,
2013-08-25 05:55:00,78.3,74.8,30.04,NW,319,0.0,4.0,89,0.00,,BKN240,0.00,VWS V14.00,2013-08-25 09:55:00,
2013-08-25 06:55:00,77.9,74.4,30.07,WSW,255,3.0,7.0,89,0.00,,BKN240,0.00,VWS V14.00,2013-08-25 10:55:00,
2013-08-25 07:55:00,76.2,72.7,30.08,South,176,0.0,10.0,89,0.00,,BKN200,0.00,VWS V14.00,2013-08-25 11:55:00,
2013-08-25 08:55:00,78.4,73.5,30.09,East,97,0.0,4.0,85,0.00,,BKN200,0.00,VWS V14.00,2013-08-25 12:55:00,
2013-08-25 09:55:00,77.7,74.5,30.11,East,92,2.0,11.0,90,0.00,,BKN080,0.04,VWS V14.00,2013-08-25 13:55:00,
2013-08-25 10:55:00,80.9,73.8,30.12,East,97,0.0,9.0,79,0.00,,BKN180,0.04,VWS V14.00,2013-08-25 14:55:00,
2013-08-25 11:55:00,82.6,73.1,30.12,ENE,61,4.0,8.0,73,0.00,,BKN170,0.04,VWS V14.00,2013-08-25 15:55:00,
2013-08-25 12:55:00,82.8,75.6,30.11,East,90,1.0,10.0,79,0.00,,BKN170,0.04,VWS V14.00,2013-08-25 16:55:00,
2013-08-25 13:55:00,83.3,76.1,30.08,SE,125,0.0,10.0,79,0.00,,BKN140,0.04,VWS V14.00,2013-08-25 17:55:00,
2013-08-25 14:55:00,84.6,75.4,30.06,ENE,71,3.0,8.0,74,0.00,,BKN170,0.04,VWS V14.00,2013-08-25 18:55:00,
2013-08-25 15:55:00,84.8,76.0,30.03,SE,125,1.0,12.0,75,0.00,,BKN220,0.04,VWS V14.00,2013-08-25 19:55:00,
2013-08-25 16:55:00,83.6,74.8,30.03,ENE,66,5.0,13.0,75,0.00,,BKN250,0.04,VWS V14.00,2013-08-25 20:55:00,
2013-08-25 17:55:00,83.1,74.8,30.03,ENE,59,3.0,10.0,76,0.00,,BKN220,0.04,VWS V14.00,2013-08-25 21:55:00,
2013-08-25 18:55:00,82.3,74.4,30.04,NE,38,7.0,9.0,77,0.00,,BKN220,0.04,VWS V14.00,2013-08-25 22:55:00,
2013-08-25 19:55:00,82.1,74.2,30.06,NNE,33,0.0,7.0,77,0.00,,BKN230,0.04,VWS V14.00,2013-08-25 23:55:00,
2013-08-25 20:55:00,81.9,75.1,30.07,ENE,63,3.0,8.0,80,0.00,,OVC230,0.04,VWS V14.00,2013-08-26 00:55:00,
2013-08-25 21:55:00,81.8,75.4,30.08,NE,53,0.0,10.0,81,0.00,,BKN200,0.04,VWS V14.00,2013-08-26 01:55:00,
2013-08-25 22:55:00,81.8,75.4,30.09,NE,54,0.0,7.0,81,0.00,,BKN200,0.04,VWS V14.00,2013-08-26 02:55:00,
2013-08-25 23:56:00,82.2,75.4,30.09,East,84,4.0,10.0,80,0.00,,BKN200,0.00,VWS V14.00,2013-08-26 03:56:00,